createdAt,value
2023-03-15T00:00:36.032Z,100
2023-03-15T00:01:36.456Z,100
2023-03-15T00:02:36.964Z,100
2023-03-15T00:03:37.302Z,100
2023-03-15T00:04:37.599Z,100
2023-03-15T00:05:41.823Z,100
2023-03-15T00:06:39.245Z,100
2023-03-15T00:07:39.570Z,100
2023-03-15T00:08:40.396Z,100
2023-03-15T00:09:40.440Z,100
2023-03-15T00:11:42.931Z,100
2023-03-15T00:12:43.288Z,100
2023-03-15T00:13:43.713Z,100
2023-03-15T00:14:44.119Z,100
2023-03-15T00:16:48.132Z,100
2023-03-15T00:17:48.138Z,100
2023-03-15T00:18:48.429Z,100
2023-03-15T00:19:49.278Z,100
2023-03-15T00:20:49.691Z,100
2023-03-15T00:21:49.709Z,100
2023-03-15T00:22:50.009Z,100
2023-03-15T00:23:50.967Z,100
2023-03-15T00:24:50.778Z,100
2023-03-15T00:25:52.711Z,100
2023-03-15T00:26:51.579Z,100
2023-03-15T00:27:51.792Z,100
2023-03-15T00:28:52.302Z,100
2023-03-15T00:29:52.482Z,100
2023-03-15T00:31:54.986Z,100
2023-03-15T00:32:55.726Z,100
2023-03-15T00:33:55.723Z,100
2023-03-15T00:34:56.330Z,100
2023-03-15T00:35:56.486Z,100
2023-03-15T00:36:57.058Z,100
2023-03-15T00:37:57.391Z,100
2023-03-15T00:38:57.597Z,100
2023-03-15T00:39:58.001Z,100
2023-03-15T00:40:58.324Z,100
2023-03-15T00:41:58.895Z,100
2023-03-15T00:42:59.160Z,100
2023-03-15T00:43:59.431Z,100
2023-03-15T00:45:00.113Z,100
2023-03-15T00:46:00.710Z,100
2023-03-15T00:47:00.653Z,100
2023-03-15T00:48:01.142Z,100
2023-03-15T00:49:01.341Z,100
2023-03-15T00:50:01.672Z,100
2023-03-15T00:51:06.990Z,100
2023-03-15T00:52:05.867Z,100
2023-03-15T00:53:04.645Z,100
2023-03-15T00:54:05.167Z,100
2023-03-15T00:55:06.310Z,100
2023-03-15T00:56:07.941Z,100
2023-03-15T00:57:06.223Z,100
2023-03-15T00:58:06.525Z,100
2023-03-15T00:59:06.848Z,100
2023-03-15T01:01:14.937Z,100
2023-03-15T01:02:12.661Z,100
2023-03-15T01:03:12.749Z,100
2023-03-15T01:04:12.993Z,100
2023-03-15T01:05:13.422Z,100
2023-03-15T01:06:19.622Z,100
2023-03-15T01:07:17.343Z,100
2023-03-15T01:08:17.339Z,100
2023-03-15T01:09:17.616Z,100
2023-03-15T01:10:19.088Z,100
2023-03-15T01:11:21.764Z,100
2023-03-15T01:12:19.000Z,100
2023-03-15T01:13:19.402Z,100
2023-03-15T01:14:19.839Z,100
2023-03-15T01:15:20.470Z,100
2023-03-15T01:16:21.564Z,100
2023-03-15T01:17:21.190Z,100
2023-03-15T01:18:21.402Z,100
2023-03-15T01:19:21.667Z,100
2023-03-15T01:20:22.236Z,100
2023-03-15T01:21:23.886Z,100
2023-03-15T01:22:22.808Z,100
2023-03-15T01:23:23.290Z,100
2023-03-15T01:24:23.488Z,100
2023-03-15T01:25:24.010Z,100
2023-03-15T01:26:24.641Z,100
2023-03-15T01:27:24.767Z,100
2023-03-15T01:28:25.056Z,100
2023-03-15T01:29:25.480Z,100
2023-03-15T01:30:25.893Z,100
2023-03-15T01:31:30.251Z,100
2023-03-15T01:32:28.036Z,100
2023-03-15T01:33:29.287Z,100
2023-03-15T01:34:28.364Z,100
2023-03-15T01:35:28.791Z,100
2023-03-15T01:36:32.071Z,100
2023-03-15T01:37:30.188Z,100
2023-03-15T01:38:30.565Z,100
2023-03-15T01:39:31.071Z,100
2023-03-15T01:40:30.663Z,100
2023-03-15T01:41:30.993Z,100
2023-03-15T01:42:31.459Z,100
2023-03-15T01:43:35.303Z,100
2023-03-15T01:46:35.037Z,100
2023-03-15T01:47:34.707Z,100
2023-03-15T01:49:39.226Z,100
2023-03-15T01:50:39.542Z,100
2023-03-15T01:52:44.261Z,100
2023-03-15T01:53:48.573Z,100
2023-03-15T01:55:51.960Z,100
2023-03-15T01:58:59.473Z,100
2023-03-15T02:01:01.059Z,100
2023-03-15T02:02:02.030Z,100
2023-03-15T02:04:09.633Z,100
2023-03-15T02:05:11.915Z,100
2023-03-15T02:06:10.514Z,100
2023-03-15T02:07:10.306Z,100
2023-03-15T02:08:10.082Z,100
2023-03-15T02:09:11.718Z,100
2023-03-15T02:10:14.692Z,100
2023-03-15T02:11:13.755Z,100
2023-03-15T02:12:12.357Z,100
2023-03-15T02:13:17.069Z,100
2023-03-15T02:14:15.544Z,100
2023-03-15T02:15:14.851Z,100
2023-03-15T02:16:16.219Z,100
2023-03-15T02:17:15.447Z,100
2023-03-15T02:18:17.208Z,100
2023-03-15T02:23:26.760Z,100
2023-03-15T02:26:42.764Z,100
2023-03-15T02:27:36.881Z,100
2023-03-15T02:28:36.419Z,100
2023-03-15T02:29:36.396Z,100
2023-03-15T02:30:36.735Z,100
2023-03-15T02:31:37.391Z,100
2023-03-15T02:32:37.353Z,100
2023-03-15T02:33:45.455Z,100
2023-03-15T02:34:37.893Z,100
2023-03-15T02:35:38.567Z,100
2023-03-15T02:36:38.721Z,100
2023-03-15T02:37:39.256Z,100
2023-03-15T02:38:39.486Z,100
2023-03-15T02:39:41.098Z,100
2023-03-15T02:40:41.120Z,100
2023-03-15T02:41:43.579Z,100
2023-03-15T02:42:41.035Z,100
2023-03-15T02:43:42.640Z,100
2023-03-15T02:44:44.407Z,100
2023-03-15T02:45:42.874Z,100
2023-03-15T02:46:44.237Z,100
2023-03-15T02:47:44.843Z,100
2023-03-15T02:48:44.441Z,100
2023-03-15T02:49:46.604Z,100
2023-03-15T02:50:44.161Z,100
2023-03-15T02:51:44.563Z,100
2023-03-15T02:52:45.093Z,100
2023-03-15T02:53:45.395Z,100
2023-03-15T02:54:45.512Z,100
2023-03-15T02:55:46.035Z,100
2023-03-15T02:56:46.244Z,100
2023-03-15T02:57:46.716Z,100
2023-03-15T02:58:47.377Z,100
2023-03-15T02:59:47.995Z,100
2023-03-15T03:00:47.908Z,100
2023-03-15T03:01:48.221Z,100
2023-03-15T03:02:48.847Z,100
2023-03-15T03:03:48.856Z,100
2023-03-15T03:04:49.262Z,100
2023-03-15T03:05:49.882Z,100
2023-03-15T03:06:50.101Z,100
2023-03-15T03:07:50.524Z,100
2023-03-15T03:08:50.925Z,100
2023-03-15T03:09:51.080Z,100
2023-03-15T03:10:51.607Z,100
2023-03-15T03:11:52.284Z,100
2023-03-15T03:12:52.288Z,100
2023-03-15T03:13:52.678Z,100
2023-03-15T03:14:53.112Z,100
2023-03-15T03:15:53.503Z,100
2023-03-15T03:16:53.871Z,100
2023-03-15T03:17:54.170Z,100
2023-03-15T03:18:54.698Z,100
2023-03-15T03:19:55.004Z,100
2023-03-15T03:21:02.278Z,100
2023-03-15T03:21:59.742Z,100
2023-03-15T03:23:00.754Z,100
2023-03-15T03:24:00.542Z,100
2023-03-15T03:25:00.822Z,100
2023-03-15T03:26:02.177Z,100
2023-03-15T03:27:01.801Z,100
2023-03-15T03:28:02.013Z,100
2023-03-15T03:29:02.328Z,100
2023-03-15T03:30:08.266Z,100
2023-03-15T03:31:05.995Z,100
2023-03-15T03:32:06.076Z,100
2023-03-15T03:33:06.535Z,100
2023-03-15T03:34:06.742Z,100
2023-03-15T03:35:07.983Z,100
2023-03-15T03:36:08.232Z,100
2023-03-15T03:37:08.206Z,100
2023-03-15T03:38:09.846Z,100
2023-03-15T03:39:08.735Z,100
2023-03-15T03:40:10.174Z,100
2023-03-15T03:41:10.193Z,100
2023-03-15T03:42:09.817Z,100
2023-03-15T03:43:10.304Z,100
2023-03-15T03:44:10.502Z,100
2023-03-15T03:45:11.746Z,100
2023-03-15T03:46:11.557Z,100
2023-03-15T03:47:11.974Z,100
2023-03-15T03:48:12.015Z,100
2023-03-15T03:49:12.388Z,100
2023-03-15T03:50:12.747Z,100
2023-03-15T03:51:13.421Z,100
2023-03-15T03:52:13.646Z,100
2023-03-15T03:53:13.845Z,100
2023-03-15T03:54:16.501Z,100
2023-03-15T03:55:15.498Z,100
2023-03-15T03:56:15.704Z,100
2023-03-15T03:57:16.024Z,100
2023-03-15T03:58:16.741Z,100
2023-03-15T03:59:16.754Z,100
2023-03-15T04:00:18.300Z,100
2023-03-15T04:01:17.591Z,100
2023-03-15T04:02:18.326Z,100
2023-03-15T04:03:18.214Z,100
2023-03-15T04:04:18.975Z,100
2023-03-15T04:05:18.938Z,100
2023-03-15T04:06:20.900Z,100
2023-03-15T04:07:21.217Z,100
2023-03-15T04:08:20.277Z,100
2023-03-15T04:09:20.751Z,100
2023-03-15T04:10:21.123Z,100
2023-03-15T04:11:21.327Z,100
2023-03-15T04:12:22.416Z,100
2023-03-15T04:13:23.084Z,100
2023-03-15T04:14:22.480Z,100
2023-03-15T04:15:24.335Z,100
2023-03-15T04:16:23.303Z,100
2023-03-15T04:17:23.527Z,100
2023-03-15T04:18:24.873Z,100
2023-03-15T04:19:24.572Z,100
2023-03-15T04:20:27.433Z,100
2023-03-15T04:21:25.395Z,100
2023-03-15T04:22:25.400Z,100
2023-03-15T04:23:25.923Z,100
2023-03-15T04:24:26.227Z,100
2023-03-15T04:25:26.755Z,100
2023-03-15T04:26:27.786Z,100
2023-03-15T04:27:27.381Z,100
2023-03-15T04:28:27.668Z,100
2023-03-15T04:29:29.037Z,100
2023-03-15T04:30:29.876Z,100
2023-03-15T04:31:28.887Z,100
2023-03-15T04:32:29.183Z,100
2023-03-15T04:33:29.585Z,100
2023-03-15T04:34:30.001Z,100
2023-03-15T04:35:32.770Z,100
2023-03-15T04:36:31.069Z,100
2023-03-15T04:37:31.455Z,100
2023-03-15T04:38:31.491Z,100
2023-03-15T04:39:31.979Z,100
2023-03-15T04:40:33.352Z,100
2023-03-15T04:41:34.449Z,100
2023-03-15T04:42:32.880Z,100
2023-03-15T04:43:33.348Z,100
2023-03-15T04:44:33.658Z,100
2023-03-15T04:45:36.934Z,100
2023-03-15T04:46:35.571Z,100
2023-03-15T04:47:34.909Z,100
2023-03-15T04:48:35.840Z,100
2023-03-15T04:49:35.475Z,100
2023-03-15T04:50:36.058Z,100
2023-03-15T04:51:36.582Z,100
2023-03-15T04:52:39.647Z,100
2023-03-15T04:53:37.089Z,100
2023-03-15T04:54:37.519Z,100
2023-03-15T04:55:37.831Z,100
2023-03-15T04:56:38.442Z,100
2023-03-15T04:57:38.557Z,100
2023-03-15T04:58:38.969Z,100
2023-03-15T04:59:39.358Z,100
2023-03-15T05:00:39.840Z,100
2023-03-15T05:01:40.259Z,100
2023-03-15T05:02:41.154Z,100
2023-03-15T05:03:40.852Z,100
2023-03-15T05:04:41.266Z,100
2023-03-15T05:05:41.533Z,100
2023-03-15T05:06:42.404Z,100
2023-03-15T05:07:42.508Z,100
2023-03-15T05:08:42.619Z,100
2023-03-15T05:09:44.380Z,100
2023-03-15T05:10:43.652Z,100
2023-03-15T05:11:43.972Z,100
2023-03-15T05:12:44.991Z,100
2023-03-15T05:13:44.591Z,100
2023-03-15T05:14:45.016Z,100
2023-03-15T05:15:45.312Z,100
2023-03-15T05:16:45.847Z,100
2023-03-15T05:17:46.166Z,100
2023-03-15T05:18:46.420Z,100
2023-03-15T05:19:46.991Z,100
2023-03-15T05:20:47.322Z,100
2023-03-15T05:21:47.702Z,100
2023-03-15T05:22:48.556Z,100
2023-03-15T05:23:48.324Z,100
2023-03-15T05:24:48.678Z,100
2023-03-15T05:25:56.354Z,100
2023-03-15T05:26:53.782Z,100
2023-03-15T05:27:55.557Z,100
2023-03-15T05:28:54.490Z,100
2023-03-15T05:29:54.835Z,100
2023-03-15T05:30:55.343Z,100
2023-03-15T05:31:56.059Z,100
2023-03-15T05:32:56.051Z,100
2023-03-15T05:33:56.315Z,100
2023-03-15T05:34:56.923Z,100
2023-03-15T05:35:57.231Z,100
2023-03-15T05:36:57.657Z,100
2023-03-15T05:37:57.864Z,100
2023-03-15T05:39:01.261Z,100
2023-03-15T05:39:59.105Z,100
2023-03-15T05:40:58.990Z,100
2023-03-15T05:42:00.348Z,100
2023-03-15T05:42:59.738Z,100
2023-03-15T05:44:00.164Z,100
2023-03-15T05:45:00.586Z,100
2023-03-15T05:46:04.526Z,100
2023-03-15T05:47:02.127Z,100
2023-03-15T05:48:02.854Z,100
2023-03-15T05:49:02.959Z,100
2023-03-15T05:50:03.380Z,100
2023-03-15T05:51:03.679Z,100
2023-03-15T05:52:04.438Z,100
2023-03-15T05:53:04.309Z,100
2023-03-15T05:54:04.959Z,100
2023-03-15T05:55:05.660Z,100
2023-03-15T05:56:05.970Z,100
2023-03-15T05:57:05.970Z,100
2023-03-15T05:58:06.596Z,100
2023-03-15T05:59:07.440Z,100
2023-03-15T06:00:08.048Z,100
2023-03-15T06:01:07.219Z,100
2023-03-15T06:02:07.858Z,100
2023-03-15T06:03:08.017Z,100
2023-03-15T06:04:08.362Z,100
2023-03-15T06:05:09.335Z,100
2023-03-15T06:06:10.141Z,100
2023-03-15T06:07:09.634Z,100
2023-03-15T06:08:09.990Z,100
2023-03-15T06:09:10.251Z,100
2023-03-15T06:10:11.496Z,100
2023-03-15T06:11:11.088Z,100
2023-03-15T06:12:12.014Z,100
2023-03-15T06:13:12.545Z,100
2023-03-15T06:14:12.099Z,100
2023-03-15T06:15:12.657Z,100
2023-03-15T06:16:12.884Z,100
2023-03-15T06:17:15.837Z,100
2023-03-15T06:18:14.418Z,100
2023-03-15T06:19:14.121Z,100
2023-03-15T06:20:14.438Z,100
2023-03-15T06:21:14.854Z,100
2023-03-15T06:22:15.280Z,100
2023-03-15T06:23:15.565Z,100
2023-03-15T06:24:16.499Z,100
2023-03-15T06:25:16.251Z,100
2023-03-15T06:26:16.614Z,100
2023-03-15T06:27:17.022Z,100
2023-03-15T06:28:17.465Z,100
2023-03-15T06:29:17.863Z,100
2023-03-15T06:30:18.494Z,100
2023-03-15T06:31:18.543Z,100
2023-03-15T06:32:18.938Z,100
2023-03-15T06:33:22.084Z,100
2023-03-15T06:34:20.666Z,100
2023-03-15T06:35:20.459Z,100
2023-03-15T06:36:20.234Z,100
2023-03-15T06:37:34.299Z,100
2023-03-15T06:38:22.821Z,100
2023-03-15T06:39:23.105Z,100
2023-03-15T06:40:23.601Z,100
2023-03-15T06:41:23.787Z,100
2023-03-15T06:42:24.200Z,100
2023-03-15T06:43:25.751Z,100
2023-03-15T06:44:24.925Z,100
2023-03-15T06:45:25.248Z,100
2023-03-15T06:46:25.807Z,100
2023-03-15T06:47:25.983Z,100
2023-03-15T06:48:26.941Z,100
2023-03-15T06:49:26.715Z,100
2023-03-15T06:50:29.548Z,100
2023-03-15T06:51:31.768Z,100
2023-03-15T06:52:32.150Z,100
2023-03-15T06:53:32.607Z,100
2023-03-15T06:54:32.831Z,100
2023-03-15T06:55:33.311Z,100
2023-03-15T06:56:33.510Z,100
2023-03-15T06:57:33.848Z,100
2023-03-15T06:58:37.068Z,100
2023-03-15T06:59:34.869Z,100
2023-03-15T07:00:35.063Z,100
2023-03-15T07:01:35.429Z,100
2023-03-15T07:02:35.843Z,100
2023-03-15T07:03:36.109Z,100
2023-03-15T07:04:36.543Z,100
2023-03-15T07:05:37.224Z,100
2023-03-15T07:06:37.271Z,100
2023-03-15T07:07:37.479Z,100
2023-03-15T07:08:37.903Z,100
2023-03-15T07:09:38.838Z,100
2023-03-15T07:10:38.625Z,100
2023-03-15T07:11:41.913Z,100
2023-03-15T07:12:39.252Z,100
2023-03-15T07:13:40.390Z,100
2023-03-15T07:14:42.862Z,100
2023-03-15T07:15:40.698Z,100
2023-03-15T07:16:40.812Z,100
2023-03-15T07:17:41.330Z,100
2023-03-15T07:18:41.445Z,100
2023-03-15T07:19:55.536Z,100
2023-03-15T07:20:43.925Z,100
2023-03-15T07:21:44.129Z,100
2023-03-15T07:22:44.663Z,100
2023-03-15T07:23:45.063Z,100
2023-03-15T07:24:45.282Z,100
2023-03-15T07:25:55.107Z,100
2023-03-15T07:26:48.075Z,100
2023-03-15T07:27:48.727Z,100
2023-03-15T07:28:48.683Z,100
2023-03-15T07:29:49.103Z,100
2023-03-15T07:30:59.867Z,100
2023-03-15T07:31:52.530Z,100
2023-03-15T07:32:52.841Z,100
2023-03-15T07:33:53.027Z,100
2023-03-15T07:34:53.445Z,100
2023-03-15T07:35:54.619Z,100
2023-03-15T07:36:54.283Z,100
2023-03-15T07:37:54.342Z,100
2023-03-15T07:38:54.721Z,100
2023-03-15T07:39:55.100Z,100
2023-03-15T07:40:55.944Z,100
2023-03-15T07:41:56.040Z,100
2023-03-15T07:42:56.153Z,100
2023-03-15T07:43:58.468Z,100
2023-03-15T07:44:57.072Z,100
2023-03-15T07:45:57.350Z,100
2023-03-15T07:46:58.556Z,100
2023-03-15T07:47:58.088Z,100
2023-03-15T07:48:58.409Z,100
2023-03-15T07:49:59.160Z,100
2023-03-15T07:50:59.470Z,100
2023-03-15T07:51:59.609Z,100
2023-03-15T07:52:59.906Z,100
2023-03-15T07:54:00.212Z,100
2023-03-15T07:55:00.522Z,100
2023-03-15T07:56:01.138Z,100
2023-03-15T07:57:01.454Z,100
2023-03-15T07:58:02.392Z,100
2023-03-15T07:59:02.205Z,100
2023-03-15T08:00:02.337Z,100
2023-03-15T08:01:02.919Z,100
2023-03-15T08:02:03.492Z,100
2023-03-15T08:03:04.115Z,100
2023-03-15T08:04:04.111Z,100
2023-03-15T08:05:04.937Z,100
2023-03-15T08:06:05.103Z,100
2023-03-15T08:07:05.504Z,100
2023-03-15T08:08:06.233Z,100
2023-03-15T08:09:05.807Z,100
2023-03-15T08:10:07.100Z,100
2023-03-15T08:11:06.883Z,100
2023-03-15T08:12:07.532Z,100
2023-03-15T08:13:07.099Z,100
2023-03-15T08:14:07.940Z,100
2023-03-15T08:15:08.758Z,100
2023-03-15T08:16:08.435Z,100
2023-03-15T08:17:08.806Z,100
2023-03-15T08:18:10.412Z,100
2023-03-15T08:19:09.293Z,100
2023-03-15T08:20:11.787Z,100
2023-03-15T08:21:12.880Z,100
2023-03-15T08:22:11.468Z,100
2023-03-15T08:23:11.164Z,100
2023-03-15T08:24:14.046Z,100
2023-03-15T08:25:13.121Z,100
2023-03-15T08:26:11.893Z,100
2023-03-15T08:27:12.328Z,100
2023-03-15T08:28:13.049Z,100
2023-03-15T08:29:12.902Z,100
2023-03-15T08:30:15.612Z,100
2023-03-15T08:31:14.204Z,100
2023-03-15T08:32:14.305Z,100
2023-03-15T08:33:14.516Z,99.98
2023-03-15T08:34:15.014Z,99.61
2023-03-15T08:35:17.098Z,99.31
2023-03-15T08:36:15.573Z,98.52
2023-03-15T08:37:16.080Z,98.44
2023-03-15T08:38:16.381Z,98.56
2023-03-15T08:39:16.805Z,98.26
2023-03-15T08:40:18.447Z,97.99
2023-03-15T08:41:17.392Z,98.11
2023-03-15T08:42:17.849Z,98.11
2023-03-15T08:43:18.054Z,97.87
2023-03-15T08:44:18.464Z,97.6
2023-03-15T08:45:19.514Z,97.52
2023-03-15T08:46:19.239Z,97.83
2023-03-15T08:47:19.828Z,98.37
2023-03-15T08:48:19.954Z,98.5
2023-03-15T08:49:20.466Z,98.49
2023-03-15T08:50:20.855Z,98.52
2023-03-15T08:51:21.378Z,98.36
2023-03-15T08:52:22.025Z,98.24
2023-03-15T08:53:21.758Z,97.79
2023-03-15T08:54:22.330Z,97.8
2023-03-15T08:55:22.650Z,98
2023-03-15T08:56:23.362Z,97.93
2023-03-15T08:58:23.782Z,97.61
2023-03-15T08:59:32.304Z,97.91
2023-03-15T09:00:25.015Z,97.69
2023-03-15T09:01:25.304Z,97.7
2023-03-15T09:02:25.992Z,97.73
2023-03-15T09:03:26.031Z,97.62
2023-03-15T09:04:26.568Z,97.18
2023-03-15T09:05:27.208Z,96.95
2023-03-15T09:06:28.241Z,96.95
2023-03-15T09:07:27.842Z,96.79
2023-03-15T09:08:28.046Z,96.37
2023-03-15T09:09:28.267Z,96.25
2023-03-15T09:10:28.584Z,96.07
2023-03-15T09:11:29.202Z,95.51
2023-03-15T09:12:29.685Z,94.96
2023-03-15T09:13:30.141Z,95.06
2023-03-15T09:14:30.670Z,94.43
2023-03-15T09:15:30.450Z,94.71
2023-03-15T09:16:32.216Z,95.16
2023-03-15T09:17:31.328Z,94.88
2023-03-15T09:18:32.762Z,94.94
2023-03-15T09:19:32.196Z,95.09
2023-03-15T09:20:32.450Z,95.24
2023-03-15T09:21:33.045Z,95.32
2023-03-15T09:22:39.431Z,95.55
2023-03-15T09:23:37.374Z,95.36
2023-03-15T09:24:40.654Z,95.3
2023-03-15T09:25:38.098Z,95.88
2023-03-15T09:26:38.418Z,96.14
2023-03-15T09:27:38.936Z,96.17
2023-03-15T09:28:39.138Z,95.9
2023-03-15T09:29:39.558Z,96.04
2023-03-15T09:30:41.478Z,95.19
2023-03-15T09:31:40.307Z,94.94
2023-03-15T09:32:41.029Z,94.33
2023-03-15T09:33:41.121Z,93.75
2023-03-15T09:34:42.250Z,93.92
2023-03-15T09:35:42.151Z,93.12
2023-03-15T09:36:42.336Z,92.62
2023-03-15T09:37:42.756Z,92.49
2023-03-15T09:38:43.844Z,92.56
2023-03-15T09:39:43.838Z,92.66
2023-03-15T09:40:45.577Z,92.44
2023-03-15T09:41:47.640Z,92.44
2023-03-15T09:55:29.908Z,89.12
2023-03-15T09:58:33.017Z,89.19
2023-03-15T09:59:42.471Z,89.19
2023-03-15T10:00:43.657Z,89.39
2023-03-15T10:01:38.847Z,89.61
2023-03-15T10:02:39.112Z,90.04
2023-03-15T10:03:47.958Z,90.54
2023-03-15T10:04:44.732Z,90.14
2023-03-15T10:05:48.826Z,90.76
2023-03-15T10:06:54.574Z,91.47
2023-03-15T10:07:47.294Z,91.88
2023-03-15T10:08:47.833Z,92.5
2023-03-15T10:09:48.050Z,93.52
2023-03-15T10:23:23.845Z,90.91
2023-03-15T10:25:30.153Z,90.02
2023-03-15T10:26:31.306Z,89.06
2023-03-15T10:28:32.438Z,88.07
2023-03-15T10:29:33.010Z,88.49
2023-03-15T10:30:34.847Z,88.64
2023-03-15T10:31:44.452Z,89.05
2023-03-15T10:32:42.402Z,88.5
2023-03-15T10:33:40.308Z,88.45
2023-03-15T10:34:40.174Z,88.14
2023-03-15T10:35:41.094Z,87.62
2023-03-15T10:36:49.258Z,87.62
2023-03-15T10:37:41.754Z,87.48
2023-03-15T10:38:42.071Z,86.69
2023-03-15T10:39:47.930Z,86.12
2023-03-15T10:41:51.028Z,86.2
2023-03-15T10:42:49.201Z,86.57
2023-03-15T10:44:52.054Z,85.95
2023-03-15T10:48:00.452Z,85.13
2023-03-15T10:49:00.899Z,85.48
2023-03-15T10:49:59.881Z,85.3
2023-03-15T10:52:01.627Z,85.05
2023-03-15T10:57:16.921Z,83.65
2023-03-15T10:59:22.071Z,83.06
2023-03-15T11:02:26.677Z,82.34
2023-03-15T11:03:27.909Z,81.93
2023-03-15T11:04:27.543Z,81.32
2023-03-15T11:06:28.601Z,81.38
2023-03-15T11:07:28.642Z,81.06
2023-03-15T11:09:42.470Z,81.25
2023-03-15T11:10:34.326Z,80.47
2023-03-15T11:12:35.544Z,79.48
2023-03-15T11:13:40.503Z,79.4
2023-03-15T11:14:44.255Z,79.53
2023-03-15T11:15:52.801Z,79.81
2023-03-15T11:16:49.191Z,80.15
2023-03-15T11:17:48.826Z,78.63
2023-03-15T11:18:59.881Z,79.06
2023-03-15T11:19:56.472Z,78.62
2023-03-15T11:20:48.796Z,78.48
2023-03-15T11:21:51.495Z,78.41
2023-03-15T11:22:52.332Z,79.28
2023-03-15T11:23:51.590Z,79.12
2023-03-15T11:24:53.106Z,79.18
2023-03-15T11:25:52.944Z,79.76
2023-03-15T11:26:53.567Z,79.62
2023-03-15T11:27:52.443Z,80.12
2023-03-15T11:29:03.446Z,80.3
2023-03-15T11:29:59.331Z,80.71
2023-03-15T11:31:00.043Z,81.44
2023-03-15T11:31:59.737Z,81.78
2023-03-15T11:33:08.930Z,82.07
2023-03-15T11:34:12.588Z,82.5
2023-03-15T11:35:14.091Z,82.11
2023-03-15T11:36:13.383Z,81.25
2023-03-15T11:40:28.769Z,79.28
2023-03-15T11:42:30.624Z,80.27
2023-03-15T11:51:51.067Z,86.93
2023-03-15T11:52:52.616Z,87.09
2023-03-15T11:54:57.246Z,86.59
2023-03-15T11:55:54.624Z,86.33
2023-03-15T12:01:11.815Z,84.36
2023-03-15T12:10:33.880Z,83.2
2023-03-15T12:11:39.726Z,82.49
2023-03-15T12:12:36.771Z,82.4
2023-03-15T12:13:34.825Z,82.41
2023-03-15T12:14:37.403Z,81.92
2023-03-15T12:16:45.444Z,81.73
2023-03-15T12:17:57.087Z,81.79
2023-03-15T12:18:45.848Z,81.48
2023-03-15T12:19:44.907Z,82.21
2023-03-15T12:21:53.012Z,82.92
2023-03-15T12:24:04.902Z,82.98
2023-03-15T12:25:05.540Z,82.42
2023-03-15T12:26:05.238Z,82.09
2023-03-15T12:27:14.293Z,81.9
2023-03-15T12:28:19.488Z,81.47
2023-03-15T12:31:11.985Z,81.68
2023-03-15T12:32:15.084Z,81.81
2023-03-15T12:33:18.265Z,81.69
2023-03-15T12:35:21.256Z,80.33
2023-03-15T12:36:30.397Z,79.31
2023-03-15T12:38:24.955Z,79.42
2023-03-15T12:44:43.227Z,77.78
2023-03-15T12:45:44.049Z,77.32
2023-03-15T12:49:47.962Z,76.07
2023-03-15T12:50:54.382Z,76
2023-03-15T12:53:02.453Z,75.55
2023-03-15T12:54:00.860Z,75.77
2023-03-15T12:57:05.862Z,75.77
2023-03-15T12:58:04.855Z,75.4
2023-03-15T13:00:16.004Z,76.46
2023-03-15T13:01:16.365Z,76.32
2023-03-15T13:03:19.508Z,75.29
2023-03-15T13:04:17.443Z,75.27
2023-03-15T13:05:24.791Z,75.22
2023-03-15T13:24:18.556Z,72.38
2023-03-15T13:31:28.494Z,73.43
2023-03-15T13:32:27.414Z,73.27
2023-03-15T13:33:30.551Z,73.04
2023-03-15T13:34:31.385Z,73.35
2023-03-15T13:35:28.747Z,73.71
2023-03-15T13:37:33.874Z,72.29
2023-03-15T13:39:35.885Z,72.93
2023-03-15T13:40:46.163Z,72.88
2023-03-15T13:41:38.950Z,73.2
2023-03-15T13:42:42.285Z,73.03
2023-03-15T13:43:39.687Z,73.09
2023-03-15T13:44:43.237Z,72.78
2023-03-15T13:45:44.289Z,72.67
2023-03-15T13:46:41.777Z,72.47
2023-03-15T13:47:46.198Z,72.09
2023-03-15T13:48:46.090Z,71.58
2023-03-15T13:49:44.310Z,72
2023-03-15T13:50:49.821Z,71.89
2023-03-15T13:51:50.237Z,70.26
2023-03-15T13:52:48.866Z,69.89
2023-03-15T13:53:50.508Z,70.17
2023-03-15T13:54:49.538Z,70.12
2023-03-15T13:55:52.315Z,69.44
2023-03-15T13:58:57.655Z,68.89
2023-03-15T14:02:05.217Z,67.42
2023-03-15T14:06:20.637Z,67.41
2023-03-15T14:09:34.377Z,66.1
2023-03-15T14:12:31.040Z,65.71
2023-03-15T14:13:34.430Z,65.41
2023-03-15T14:14:35.963Z,65.46
2023-03-15T14:15:41.706Z,65.07
2023-03-15T14:17:01.177Z,65.8
2023-03-15T14:17:36.496Z,65.85
2023-03-15T14:18:39.675Z,66.2
2023-03-15T14:19:37.128Z,66.53
2023-03-15T14:20:46.950Z,65.6
2023-03-15T14:21:39.481Z,65.79
2023-03-15T14:22:42.582Z,66.95
2023-03-15T14:23:43.211Z,65.47
2023-03-15T14:24:44.136Z,66.42
2023-03-15T14:25:41.876Z,66.88
2023-03-15T14:26:41.988Z,65.91
2023-03-15T14:27:44.452Z,66.5
2023-03-15T14:29:52.957Z,65.65
2023-03-15T14:30:56.134Z,66.37
2023-03-15T14:31:53.698Z,66.85
2023-03-15T14:32:56.706Z,67.32
2023-03-15T14:36:09.490Z,65.65
2023-03-15T14:40:28.983Z,66.51
2023-03-15T14:42:18.323Z,67.23
2023-03-15T14:43:19.873Z,67.61
2023-03-15T14:44:19.024Z,68.48
2023-03-15T14:45:20.045Z,66.98
2023-03-15T14:46:20.194Z,66.57
2023-03-15T14:47:20.104Z,66.42
2023-03-15T14:49:27.999Z,67.86
2023-03-15T14:51:29.147Z,68.02
2023-03-15T14:52:28.236Z,68.2
2023-03-15T14:54:32.638Z,70.35
2023-03-15T14:55:32.744Z,70.89
2023-03-15T14:56:30.405Z,71.05
2023-03-15T14:57:30.861Z,71.15
2023-03-15T14:58:31.134Z,72.41
2023-03-15T14:59:31.731Z,71.83
2023-03-15T15:00:32.981Z,71.18
2023-03-15T15:01:32.420Z,70.93
2023-03-15T15:02:34.693Z,71.53
2023-03-15T15:03:38.486Z,71.71
2023-03-15T15:04:35.971Z,71.13
2023-03-15T15:05:36.345Z,71.46
2023-03-15T15:06:36.728Z,71.34
2023-03-15T15:07:36.993Z,72.27
2023-03-15T15:08:39.074Z,73.02
2023-03-15T15:09:40.067Z,72.96
2023-03-15T15:10:39.088Z,73.27
2023-03-15T15:11:38.592Z,72.74
2023-03-15T15:12:38.803Z,72.79
2023-03-15T15:13:40.015Z,73.29
2023-03-15T15:14:39.759Z,73.55
2023-03-15T15:15:54.598Z,73.58
2023-03-15T15:16:43.547Z,73.47
2023-03-15T15:17:43.850Z,73.58
2023-03-15T15:18:43.652Z,73.45
2023-03-15T15:19:45.576Z,73.33
2023-03-15T15:20:46.144Z,73.53
2023-03-15T15:21:45.322Z,73.55
2023-03-15T15:22:46.569Z,73.71
2023-03-15T15:23:57.418Z,73.96
2023-03-15T15:24:46.071Z,73.98
2023-03-15T15:25:47.199Z,73.49
2023-03-15T15:26:47.495Z,75.14
2023-03-15T15:27:48.224Z,74.64
2023-03-15T15:28:48.020Z,74.4
2023-03-15T15:29:48.132Z,75.54
2023-03-15T15:30:48.382Z,75.42
2023-03-15T15:31:49.036Z,74.13
2023-03-15T15:32:49.722Z,74.65
2023-03-15T15:33:50.212Z,74.57
2023-03-15T15:34:49.868Z,75.33
2023-03-15T15:35:55.981Z,74.74
2023-03-15T15:36:54.830Z,75.3
2023-03-15T15:37:53.927Z,75.52
2023-03-15T15:38:54.536Z,74.86
2023-03-15T15:39:55.365Z,75.19
2023-03-15T15:40:55.449Z,75.08
2023-03-15T15:41:56.094Z,75.29
2023-03-15T15:42:55.688Z,76.04
2023-03-15T15:43:56.221Z,75.24
2023-03-15T15:44:56.634Z,75.04
2023-03-15T15:45:57.094Z,75.19
2023-03-15T15:46:57.479Z,75.41
2023-03-15T15:47:57.469Z,75.44
2023-03-15T15:48:57.785Z,75.64
2023-03-15T15:49:58.229Z,75.8
2023-03-15T15:50:58.495Z,75.7
2023-03-15T15:51:59.129Z,76.08
2023-03-15T15:53:05.088Z,76.19
2023-03-15T15:54:02.744Z,76.25
2023-03-15T15:55:03.243Z,75.75
2023-03-15T15:56:03.354Z,76.48
2023-03-15T15:57:04.700Z,76.73
2023-03-15T15:58:05.425Z,76.76
2023-03-15T15:59:05.437Z,77.05
2023-03-15T16:00:07.578Z,77.33
2023-03-15T16:01:05.782Z,77.24
2023-03-15T16:02:13.856Z,77.39
2023-03-15T16:03:14.102Z,77.99
2023-03-15T16:04:08.224Z,77.79
2023-03-15T16:05:10.570Z,78
2023-03-15T16:07:12.749Z,78.74
2023-03-15T16:09:18.925Z,79.21
2023-03-15T16:10:25.580Z,79.63
2023-03-15T16:11:18.104Z,79.46
2023-03-15T16:12:20.151Z,79.83
2023-03-15T16:13:18.623Z,80.18
2023-03-15T16:14:19.146Z,80.41
2023-03-15T16:15:22.637Z,80.63
2023-03-15T16:16:20.233Z,80.28
2023-03-15T16:17:22.880Z,81.24